createdAt,value
2017-09-30T00:00:34.588Z,1021
2017-09-30T00:02:33.275Z,1021
2017-09-30T00:03:32.320Z,1021
2017-09-30T00:04:31.491Z,1021
2017-09-30T00:05:30.544Z,1021.1
2017-09-30T00:06:29.973Z,1021
2017-09-30T00:07:28.898Z,1021.1
2017-09-30T00:10:26.846Z,1021.1
2017-09-30T00:11:26.141Z,1021.1
2017-09-30T00:13:24.205Z,1021
2017-09-30T00:15:22.644Z,1021.1
2017-09-30T00:16:21.938Z,1021
2017-09-30T00:17:21.366Z,1021
2017-09-30T00:19:19.430Z,1021
2017-09-30T00:21:18.020Z,1021
2017-09-30T00:22:17.193Z,1021
2017-09-30T00:23:16.371Z,1021
2017-09-30T00:26:14.068Z,1021
2017-09-30T00:27:12.985Z,1021
2017-09-30T00:28:12.286Z,1021
2017-09-30T00:29:11.350Z,1021
2017-09-30T00:30:10.521Z,1021
2017-09-30T00:32:08.953Z,1021
2017-09-30T00:33:08.510Z,1021
2017-09-30T00:34:07.681Z,1021.1
2017-09-30T00:35:06.971Z,1021
2017-09-30T00:37:05.031Z,1021
2017-09-30T00:39:03.341Z,1021
2017-09-30T00:41:02.025Z,1021
2017-09-30T00:42:01.075Z,1020.9
2017-09-30T00:43:00.373Z,1021
2017-09-30T00:43:59.542Z,1021
2017-09-30T00:45:57.729Z,1020.9
2017-09-30T00:46:57.159Z,1020.9
2017-09-30T00:47:56.080Z,1020.9
2017-09-30T00:48:55.503Z,1020.9
2017-09-30T00:51:53.321Z,1020.9
2017-09-30T00:52:52.116Z,1020.9
2017-09-30T00:53:51.412Z,1020.9
2017-09-30T00:55:49.718Z,1020.9
2017-09-30T00:56:49.136Z,1020.9
2017-09-30T00:57:48.442Z,1020.9
2017-09-30T00:58:47.493Z,1020.8
2017-09-30T00:59:46.545Z,1020.8
2017-09-30T01:01:45.222Z,1020.8
2017-09-30T01:02:44.420Z,1020.7
2017-09-30T01:03:43.211Z,1020.7
2017-09-30T01:04:42.382Z,1020.8
2017-09-30T01:05:41.954Z,1020.8
2017-09-30T01:06:40.873Z,1020.8
2017-09-30T01:08:39.311Z,1020.8
2017-09-30T01:09:38.740Z,1020.8
2017-09-30T01:10:37.534Z,1020.8
2017-09-30T01:11:36.962Z,1020.8
2017-09-30T01:12:36.014Z,1020.8
2017-09-30T01:13:35.384Z,1020.8
2017-09-30T01:16:32.949Z,1020.8
2017-09-30T01:18:31.507Z,1020.8
2017-09-30T01:19:30.470Z,1020.7
2017-09-30T01:20:29.802Z,1020.7
2017-09-30T01:21:29.105Z,1020.7
2017-09-30T01:23:27.161Z,1020.7
2017-09-30T01:24:26.588Z,1020.7
2017-09-30T01:25:25.629Z,1020.7
2017-09-30T01:26:24.927Z,1020.6
2017-09-30T01:29:22.372Z,1020.6
2017-09-30T01:30:21.424Z,1020.6
2017-09-30T01:31:20.866Z,1020.6
2017-09-30T01:32:19.782Z,1020.6
2017-09-30T01:33:19.078Z,1020.6
2017-09-30T01:34:18.513Z,1020.6
2017-09-30T01:35:17.426Z,1020.6
2017-09-30T01:36:16.847Z,1020.6
2017-09-30T01:37:15.766Z,1020.6
2017-09-30T01:38:14.940Z,1020.5
2017-09-30T01:39:14.364Z,1020.5
2017-09-30T01:39:44.725Z,1020.5
2017-09-30T01:40:14.961Z,1020.6
2017-09-30T01:40:45.195Z,1020.6
2017-09-30T01:41:15.431Z,1020.5
2017-09-30T01:41:46.044Z,1020.5
2017-09-30T01:45:09.283Z,1020.5
2017-09-30T01:46:08.325Z,1020.5
2017-09-30T01:47:07.751Z,1020.5
2017-09-30T01:49:06.063Z,1020.5
2017-09-30T01:50:05.362Z,1020.4
2017-09-30T01:52:03.663Z,1020.4
2017-09-30T01:53:02.841Z,1020.4
2017-09-30T01:54:02.132Z,1020.4
2017-09-30T01:55:01.429Z,1020.4
2017-09-30T01:56:00.419Z,1020.4
2017-09-30T01:57:58.725Z,1020.4
2017-09-30T01:58:58.037Z,1020.4
2017-09-30T01:59:57.085Z,1020.4
2017-09-30T02:00:56.507Z,1020.4
2017-09-30T02:01:55.418Z,1020.4
2017-09-30T02:02:54.730Z,1020.4
2017-09-30T02:04:52.918Z,1020.4
2017-09-30T02:05:52.086Z,1020.3
2017-09-30T02:06:51.258Z,1020.4
2017-09-30T02:07:50.807Z,1020.4
2017-09-30T02:08:49.850Z,1020.4
2017-09-30T02:09:49.033Z,1020.4
2017-09-30T02:11:47.465Z,1020.3
2017-09-30T02:12:46.266Z,1020.3
2017-09-30T02:13:45.818Z,1020.3
2017-09-30T02:14:44.983Z,1020.3
2017-09-30T02:15:43.900Z,1020.3
2017-09-30T02:17:42.328Z,1020.3
2017-09-30T02:18:41.506Z,1020.3
2017-09-30T02:19:40.800Z,1020.3
2017-09-30T02:20:39.719Z,1020.3
2017-09-30T02:21:10.325Z,1020.3
2017-09-30T02:22:38.185Z,1020.3
2017-09-30T02:23:37.477Z,1020.3
2017-09-30T02:24:36.651Z,1020.3
2017-09-30T02:25:35.822Z,1020.3
2017-09-30T02:26:35.125Z,1020.3
2017-09-30T02:27:34.300Z,1020.2
2017-09-30T02:28:33.090Z,1020.3
2017-09-30T02:29:32.264Z,1020.3
2017-09-30T02:30:31.707Z,1020.3
2017-09-30T02:31:30.643Z,1020.3
2017-09-30T02:32:00.896Z,1020.3
2017-09-30T02:32:31.155Z,1020.3
2017-09-30T02:33:01.525Z,1020.3
2017-09-30T02:33:32.009Z,1020.3
2017-09-30T02:34:02.636Z,1020.3
2017-09-30T02:35:27.731Z,1020.3
2017-09-30T02:37:25.784Z,1020.3
2017-09-30T02:38:25.340Z,1020.3
2017-09-30T02:40:23.381Z,1020.3
2017-09-30T02:41:22.427Z,1020.3
2017-09-30T02:42:21.595Z,1020.3
2017-09-30T02:43:20.891Z,1020.3
2017-09-30T02:44:20.322Z,1020.3
2017-09-30T02:45:19.121Z,1020.3
2017-09-30T02:46:18.419Z,1020.3
2017-09-30T02:47:17.587Z,1020.3
2017-09-30T02:48:16.628Z,1020.2
2017-09-30T02:49:15.934Z,1020.3
2017-09-30T02:50:15.358Z,1020.3
2017-09-30T02:51:14.153Z,1020.2
2017-09-30T02:52:13.460Z,1020.2
2017-09-30T02:53:12.762Z,1020.2
2017-09-30T02:54:11.930Z,1020.2
2017-09-30T02:55:11.234Z,1020.3
2017-09-30T02:56:10.036Z,1020.2
2017-09-30T02:57:09.582Z,1020.2
2017-09-30T02:58:08.390Z,1020.2
2017-09-30T02:59:07.944Z,1020.2
2017-09-30T03:00:06.752Z,1020.2
2017-09-30T03:01:06.311Z,1020.2
2017-09-30T03:02:05.491Z,1020.2
2017-09-30T03:04:03.695Z,1020.1
2017-09-30T03:05:02.629Z,1020.1
2017-09-30T03:06:02.189Z,1020.1
2017-09-30T03:07:01.371Z,1020.1
2017-09-30T03:08:00.432Z,1020.1
2017-09-30T03:08:59.734Z,1020.1
2017-09-30T03:09:58.663Z,1020.1
2017-09-30T03:10:57.851Z,1020.1
2017-09-30T03:11:57.030Z,1020.1
2017-09-30T03:12:56.221Z,1020.1
2017-09-30T03:13:55.288Z,1020.1
2017-09-30T03:14:54.347Z,1020.1
2017-09-30T03:16:52.792Z,1020
2017-09-30T03:18:51.234Z,1020
2017-09-30T03:19:50.292Z,1020
2017-09-30T03:20:49.591Z,1020
2017-09-30T03:21:48.895Z,1020
2017-09-30T03:23:47.090Z,1020
2017-09-30T03:24:46.028Z,1020
2017-09-30T03:25:45.328Z,1020
2017-09-30T03:26:44.513Z,1019.9
2017-09-30T03:28:43.082Z,1020
2017-09-30T03:29:13.496Z,1020
2017-09-30T03:29:43.860Z,1019.9
2017-09-30T03:30:41.273Z,1019.9
2017-09-30T03:32:39.590Z,1019.9
2017-09-30T03:33:38.925Z,1019.9
2017-09-30T03:34:37.723Z,1019.9
2017-09-30T03:36:36.300Z,1019.9
2017-09-30T03:37:35.236Z,1019.9
2017-09-30T03:38:34.554Z,1019.9
2017-09-30T03:39:33.735Z,1019.9
2017-09-30T03:40:33.163Z,1019.9
2017-09-30T03:41:32.239Z,1019.9
2017-09-30T03:42:31.167Z,1019.9
2017-09-30T03:43:30.368Z,1019.9
2017-09-30T03:44:29.424Z,1019.9
2017-09-30T03:46:27.740Z,1019.9
2017-09-30T03:47:27.302Z,1019.9
2017-09-30T03:48:26.235Z,1019.9
2017-09-30T03:49:25.292Z,1019.9
2017-09-30T03:50:24.598Z,1019.9
2017-09-30T03:51:23.904Z,1019.9
2017-09-30T03:52:22.965Z,1019.9
2017-09-30T03:53:22.017Z,1019.9
2017-09-30T03:54:21.066Z,1019.9
2017-09-30T03:55:20.259Z,1019.8
2017-09-30T03:56:19.441Z,1019.9
2017-09-30T03:58:17.756Z,1019.9
2017-09-30T03:59:17.062Z,1019.9
2017-09-30T04:00:16.261Z,1019.8
2017-09-30T04:01:15.453Z,1019.8
2017-09-30T04:02:14.522Z,1019.8
2017-09-30T04:03:13.575Z,1019.8
2017-09-30T04:04:13.004Z,1019.8
2017-09-30T04:05:11.944Z,1019.7
2017-09-30T04:06:11.253Z,1019.8
2017-09-30T04:07:10.170Z,1019.7
2017-09-30T04:08:09.469Z,1019.7
2017-09-30T04:08:39.842Z,1019.7
2017-09-30T04:09:10.469Z,1019.7
2017-09-30T04:10:08.008Z,1019.7
2017-09-30T04:12:06.090Z,1019.8
2017-09-30T04:14:04.659Z,1019.7
2017-09-30T04:15:03.469Z,1019.7
2017-09-30T04:17:02.038Z,1019.7
2017-09-30T04:18:00.974Z,1019.8
2017-09-30T04:19:00.151Z,1019.8
2017-09-30T04:19:59.584Z,1019.7
2017-09-30T04:21:57.658Z,1019.7
2017-09-30T04:22:57.095Z,1019.7
2017-09-30T04:23:56.295Z,1019.6
2017-09-30T04:24:55.478Z,1019.7
2017-09-30T04:25:54.654Z,1019.7
2017-09-30T04:26:53.714Z,1019.7
2017-09-30T04:27:52.647Z,1019.7
2017-09-30T04:28:51.831Z,1019.7
2017-09-30T04:29:50.890Z,1019.7
2017-09-30T04:30:50.445Z,1019.7
2017-09-30T04:31:49.260Z,1019.7
2017-09-30T04:32:48.573Z,1019.7
2017-09-30T04:33:47.623Z,1019.7
2017-09-30T04:34:46.804Z,1019.6
2017-09-30T04:35:45.861Z,1019.7
2017-09-30T04:36:45.039Z,1019.7
2017-09-30T04:37:44.349Z,1019.7
2017-09-30T04:38:43.539Z,1019.6
2017-09-30T04:39:42.969Z,1019.6
2017-09-30T04:40:42.151Z,1019.6
2017-09-30T04:41:41.075Z,1019.6
2017-09-30T04:42:40.261Z,1019.6
2017-09-30T04:43:39.185Z,1019.6
2017-09-30T04:44:38.737Z,1019.6
2017-09-30T04:45:37.673Z,1019.6
2017-09-30T04:46:36.846Z,1019.6
2017-09-30T04:47:35.902Z,1019.6
2017-09-30T04:48:35.213Z,1019.6
2017-09-30T04:49:34.525Z,1019.6
2017-09-30T04:50:33.334Z,1019.6
2017-09-30T04:51:32.512Z,1019.6
2017-09-30T04:52:31.693Z,1019.6
2017-09-30T04:53:30.783Z,1019.5
2017-09-30T04:54:30.213Z,1019.5
2017-09-30T04:55:29.403Z,1019.5
2017-09-30T04:56:28.210Z,1019.5
2017-09-30T04:57:27.525Z,1019.5
2017-09-30T04:58:26.702Z,1019.5
2017-09-30T04:59:25.884Z,1019.5
2017-09-30T05:00:24.937Z,1019.5
2017-09-30T05:01:24.114Z,1019.5
2017-09-30T05:02:23.171Z,1019.5
2017-09-30T05:03:22.355Z,1019.5
2017-09-30T05:04:21.544Z,1019.5
2017-09-30T05:05:20.730Z,1019.5
2017-09-30T05:06:19.913Z,1019.5
2017-09-30T05:07:19.099Z,1019.5
2017-09-30T05:08:18.546Z,1019.5
2017-09-30T05:09:17.478Z,1019.5
2017-09-30T05:10:16.404Z,1019.5
2017-09-30T05:11:15.829Z,1019.5
2017-09-30T05:12:15.132Z,1019.5
2017-09-30T05:13:14.321Z,1019.5
2017-09-30T05:14:13.252Z,1019.5
2017-09-30T05:15:12.570Z,1019.4
2017-09-30T05:16:11.629Z,1019.5
2017-09-30T05:17:10.558Z,1019.5
2017-09-30T05:18:09.622Z,1019.5
2017-09-30T05:19:08.924Z,1019.5
2017-09-30T05:20:08.111Z,1019.5
2017-09-30T05:21:07.292Z,1019.5
2017-09-30T05:22:06.478Z,1019.5
2017-09-30T05:23:05.788Z,1019.5
2017-09-30T05:24:04.966Z,1019.5
2017-09-30T05:25:03.889Z,1019.5
2017-09-30T05:26:03.329Z,1019.5
2017-09-30T05:27:02.253Z,1019.5
2017-09-30T05:28:01.181Z,1019.5
2017-09-30T05:29:00.498Z,1019.5
2017-09-30T05:29:59.567Z,1019.5
2017-09-30T05:30:58.881Z,1019.5
2017-09-30T05:31:57.815Z,1019.5
2017-09-30T05:32:57.384Z,1019.5
2017-09-30T05:33:56.440Z,1019.5
2017-09-30T05:34:55.621Z,1019.6
2017-09-30T05:35:54.800Z,1019.6
2017-09-30T05:36:53.603Z,1019.6
2017-09-30T05:37:52.905Z,1019.6
2017-09-30T05:38:51.962Z,1019.6
2017-09-30T05:39:51.140Z,1019.6
2017-09-30T05:40:50.575Z,1019.5
2017-09-30T05:41:49.623Z,1019.6
2017-09-30T05:42:48.677Z,1019.6
2017-09-30T05:43:47.857Z,1019.6
2017-09-30T05:44:47.036Z,1019.6
2017-09-30T05:45:46.093Z,1019.7
2017-09-30T05:46:45.399Z,1019.7
2017-09-30T05:47:44.702Z,1019.7
2017-09-30T05:48:43.639Z,1019.7
2017-09-30T05:49:42.957Z,1019.6
2017-09-30T05:50:42.025Z,1019.7
2017-09-30T05:51:41.080Z,1019.7
2017-09-30T05:52:40.263Z,1019.7
2017-09-30T05:53:39.573Z,1019.6
2017-09-30T05:54:38.754Z,1019.6
2017-09-30T05:55:37.936Z,1019.7
2017-09-30T05:56:37.116Z,1019.6
2017-09-30T05:57:36.174Z,1019.6
2017-09-30T05:58:35.101Z,1019.6
2017-09-30T05:59:34.173Z,1019.6
2017-09-30T06:00:33.735Z,1019.6
2017-09-30T06:01:32.794Z,1019.6
2017-09-30T06:02:31.722Z,1019.6
2017-09-30T06:03:31.032Z,1019.6
2017-09-30T06:04:30.337Z,1019.6
2017-09-30T06:06:28.277Z,1019.6
2017-09-30T06:07:27.703Z,1019.6
2017-09-30T06:08:26.759Z,1019.6
2017-09-30T06:09:25.936Z,1019.6
2017-09-30T06:10:25.121Z,1019.6
2017-09-30T06:11:24.180Z,1019.6
2017-09-30T06:12:23.246Z,1019.6
2017-09-30T06:13:22.299Z,1019.6
2017-09-30T06:14:21.866Z,1019.6
2017-09-30T06:15:21.048Z,1019.5
2017-09-30T06:16:19.725Z,1019.5
2017-09-30T06:18:18.172Z,1019.5
2017-09-30T06:19:17.229Z,1019.5
2017-09-30T06:20:16.788Z,1019.5
2017-09-30T06:21:15.589Z,1019.5
2017-09-30T06:22:14.652Z,1019.5
2017-09-30T06:23:13.956Z,1019.6
2017-09-30T06:24:13.144Z,1019.5
2017-09-30T06:25:12.575Z,1019.5
2017-09-30T06:26:11.269Z,1019.5
2017-09-30T06:27:10.449Z,1019.5
2017-09-30T06:28:09.894Z,1019.5
2017-09-30T06:30:08.084Z,1019.5
2017-09-30T06:31:07.282Z,1019.5
2017-09-30T06:32:06.584Z,1019.5
2017-09-30T06:33:05.644Z,1019.5
2017-09-30T06:34:04.822Z,1019.4
2017-09-30T06:35:03.880Z,1019.4
2017-09-30T06:36:02.830Z,1019.5
2017-09-30T06:37:02.004Z,1019.5
2017-09-30T06:39:00.327Z,1019.5
2017-09-30T06:39:59.512Z,1019.4
2017-09-30T06:40:58.698Z,1019.4
2017-09-30T06:41:58.258Z,1019.4
2017-09-30T06:42:57.072Z,1019.4
2017-09-30T06:43:56.250Z,1019.5
2017-09-30T06:44:55.578Z,1019.4
2017-09-30T06:45:54.633Z,1019.4
2017-09-30T06:46:53.564Z,1019.4
2017-09-30T06:47:52.867Z,1019.4
2017-09-30T06:48:52.186Z,1019.4
2017-09-30T06:49:51.368Z,1019.4
2017-09-30T06:50:50.428Z,1019.4
2017-09-30T06:51:49.741Z,1019.4
2017-09-30T06:52:48.679Z,1019.4
2017-09-30T06:53:47.989Z,1019.4
2017-09-30T06:54:47.303Z,1019.4
2017-09-30T06:55:45.989Z,1019.4
2017-09-30T06:56:45.549Z,1019.4
2017-09-30T06:57:44.352Z,1019.4
2017-09-30T06:58:43.530Z,1019.5
2017-09-30T06:59:42.843Z,1019.5
2017-09-30T07:00:42.283Z,1019.5
2017-09-30T07:01:41.212Z,1019.5
2017-09-30T07:02:40.384Z,1019.5
2017-09-30T07:03:39.565Z,1019.5
2017-09-30T07:04:38.617Z,1019.5
2017-09-30T07:05:37.677Z,1019.5
2017-09-30T07:07:36.117Z,1019.4
2017-09-30T07:08:35.300Z,1019.4
2017-09-30T07:09:34.597Z,1019.4
2017-09-30T07:10:33.650Z,1019.4
2017-09-30T07:11:32.954Z,1019.4
2017-09-30T07:12:32.137Z,1019.4
2017-09-30T07:13:31.198Z,1019.4
2017-09-30T07:14:30.378Z,1019.4
2017-09-30T07:15:29.557Z,1019.4
2017-09-30T07:16:28.484Z,1019.3
2017-09-30T07:17:28.052Z,1019.3
2017-09-30T07:18:26.730Z,1019.3
2017-09-30T07:19:26.162Z,1019.4
2017-09-30T07:20:25.222Z,1019.4
2017-09-30T07:21:24.531Z,1019.4
2017-09-30T07:22:23.843Z,1019.4
2017-09-30T07:23:22.641Z,1019.3
2017-09-30T07:24:21.818Z,1019.4
2017-09-30T07:25:21.378Z,1019.4
2017-09-30T07:26:20.559Z,1019.4
2017-09-30T07:27:19.567Z,1019.4
2017-09-30T07:28:18.495Z,1019.4
2017-09-30T07:29:17.590Z,1019.4
2017-09-30T07:30:16.893Z,1019.4
2017-09-30T07:31:16.329Z,1019.3
2017-09-30T07:32:15.265Z,1019.4
2017-09-30T07:33:14.438Z,1019.4
2017-09-30T07:34:13.739Z,1019.3
2017-09-30T07:35:12.676Z,1019.3
2017-09-30T07:36:11.972Z,1019.3
2017-09-30T07:37:11.039Z,1019.3
2017-09-30T07:39:09.610Z,1019.3
2017-09-30T07:40:08.788Z,1019.3
2017-09-30T07:41:08.098Z,1019.3
2017-09-30T07:42:06.897Z,1019.3
2017-09-30T07:43:06.457Z,1019.3
2017-09-30T07:44:05.287Z,1019.3
2017-09-30T07:45:04.594Z,1019.3
2017-09-30T07:46:03.904Z,1019.2
2017-09-30T07:48:01.972Z,1019.3
2017-09-30T07:49:01.404Z,1019.2
2017-09-30T07:50:59.472Z,1019.3
2017-09-30T07:51:58.649Z,1019.3
2017-09-30T07:52:58.077Z,1019.3
2017-09-30T07:53:57.390Z,1019.2
2017-09-30T07:54:56.451Z,1019.2
2017-09-30T07:55:26.687Z,1019.2
2017-09-30T07:55:57.054Z,1019.2
2017-09-30T07:56:27.547Z,1019.2
2017-09-30T07:56:58.047Z,1019.2
2017-09-30T07:57:54.082Z,1019.2
2017-09-30T07:58:53.261Z,1019.2
2017-09-30T07:59:52.574Z,1019.2
2017-09-30T08:00:51.493Z,1019.3
2017-09-30T08:01:50.804Z,1019.2
2017-09-30T08:02:49.985Z,1019.2
2017-09-30T08:03:49.166Z,1019.2
2017-09-30T08:04:48.463Z,1019.2
2017-09-30T08:05:47.520Z,1019.2
2017-09-30T08:06:46.966Z,1019.2
2017-09-30T08:07:46.020Z,1019.2
2017-09-30T08:08:16.514Z,1019.2
2017-09-30T08:09:44.137Z,1019
2017-09-30T08:10:43.445Z,1019
2017-09-30T08:11:42.746Z,1019.2
2017-09-30T08:12:41.934Z,1019.2
2017-09-30T08:13:40.995Z,1019.2
2017-09-30T08:14:40.296Z,1019.2
2017-09-30T08:15:39.349Z,1019.2
2017-09-30T08:16:38.792Z,1019.2
2017-09-30T08:17:37.969Z,1019
2017-09-30T08:18:37.275Z,1019.2
2017-09-30T08:19:36.202Z,1019.2
2017-09-30T08:20:35.379Z,1019
2017-09-30T08:21:34.818Z,1019
2017-09-30T08:22:34.125Z,1019.2
2017-09-30T08:23:32.940Z,1019
2017-09-30T08:24:32.495Z,1019
2017-09-30T08:25:31.303Z,1019
2017-09-30T08:26:30.737Z,1019
2017-09-30T08:28:29.052Z,1019
2017-09-30T08:29:28.236Z,1019
2017-09-30T08:30:27.677Z,1019
2017-09-30T08:31:26.982Z,1019
2017-09-30T08:32:26.039Z,1019
2017-09-30T08:33:25.103Z,1019
2017-09-30T08:34:24.283Z,1018.9
2017-09-30T08:35:23.847Z,1019
2017-09-30T08:36:22.771Z,1019
2017-09-30T08:37:21.961Z,1018.9
2017-09-30T08:38:21.384Z,1018.9
2017-09-30T08:38:51.878Z,1018.9
2017-09-30T08:40:19.876Z,1018.9
2017-09-30T08:41:19.189Z,1018.9
2017-09-30T08:42:18.362Z,1018.9
2017-09-30T08:43:17.544Z,1018.9
2017-09-30T08:44:16.729Z,1018.9
2017-09-30T08:45:16.035Z,1018.9
2017-09-30T08:46:15.215Z,1018.9
2017-09-30T08:47:14.398Z,1018.9
2017-09-30T08:48:13.599Z,1018.9
2017-09-30T08:49:12.526Z,1018.9
2017-09-30T08:50:11.828Z,1018.9
2017-09-30T08:51:11.004Z,1018.9
2017-09-30T08:52:10.564Z,1018.9
2017-09-30T08:54:08.884Z,1018.9
2017-09-30T08:55:08.061Z,1018.8
2017-09-30T08:56:07.375Z,1018.9
2017-09-30T08:57:06.303Z,1018.8
2017-09-30T08:58:05.866Z,1018.8
2017-09-30T08:59:05.054Z,1018.9
2017-09-30T09:00:03.982Z,1018.9
2017-09-30T09:01:03.671Z,1018.8
2017-09-30T09:02:02.478Z,1018.8
2017-09-30T09:03:02.040Z,1018.8
2017-09-30T09:05:00.107Z,1018.8
2017-09-30T09:05:59.793Z,1018.8
2017-09-30T09:06:58.727Z,1018.7
2017-09-30T09:07:57.907Z,1018.7
2017-09-30T09:08:57.217Z,1018.8
2017-09-30T09:09:56.644Z,1018.7
2017-09-30T09:10:55.946Z,1018.7
2017-09-30T09:11:54.996Z,1018.7
2017-09-30T09:12:54.430Z,1018.7
2017-09-30T09:13:53.365Z,1018.7
2017-09-30T09:14:52.538Z,1018.7
2017-09-30T09:15:51.852Z,1018.7
2017-09-30T09:16:51.032Z,1018.7
2017-09-30T09:17:50.343Z,1018.6
2017-09-30T09:18:49.669Z,1018.6
2017-09-30T09:19:48.839Z,1018.6
2017-09-30T09:20:48.144Z,1018.7
2017-09-30T09:21:47.202Z,1018.7
2017-09-30T09:22:46.648Z,1018.6
2017-09-30T09:23:45.857Z,1018.6
2017-09-30T09:24:45.039Z,1018.6
2017-09-30T09:25:44.470Z,1018.6
2017-09-30T09:26:43.403Z,1018.6
2017-09-30T09:27:42.716Z,1018.6
2017-09-30T09:28:42.029Z,1018.6
2017-09-30T09:29:41.343Z,1018.6
2017-09-30T09:30:40.769Z,1018.5
2017-09-30T09:31:39.950Z,1018.5
2017-09-30T09:32:39.127Z,1018.6
2017-09-30T09:33:38.426Z,1018.5
2017-09-30T09:34:08.671Z,1018.5
2017-09-30T09:34:39.157Z,1018.5
2017-09-30T09:35:09.394Z,1018.5
2017-09-30T09:36:36.138Z,1018.4
2017-09-30T09:37:35.439Z,1018.4
2017-09-30T09:38:34.638Z,1018.4
2017-09-30T09:39:33.819Z,1018.4
2017-09-30T09:40:33.000Z,1018.4
2017-09-30T09:41:32.301Z,1018.3
2017-09-30T09:42:31.609Z,1018.3
2017-09-30T09:43:30.914Z,1018.4
2017-09-30T09:44:30.228Z,1018.4
2017-09-30T09:45:29.526Z,1018.3
2017-09-30T09:46:28.462Z,1018.3
2017-09-30T09:47:27.643Z,1018.3
2017-09-30T09:48:27.074Z,1018.3
2017-09-30T09:49:26.125Z,1018.3
2017-09-30T09:50:25.557Z,1018.3
2017-09-30T09:51:24.859Z,1018.3
2017-09-30T09:52:24.293Z,1018.2
2017-09-30T09:53:23.349Z,1018.2
2017-09-30T09:54:22.784Z,1018.2
2017-09-30T09:55:22.088Z,1018.2
2017-09-30T09:56:21.020Z,1018.2
2017-09-30T09:57:20.208Z,1018.2
2017-09-30T09:58:19.638Z,1018.2
2017-09-30T09:59:18.827Z,1018.2
2017-09-30T10:00:18.258Z,1018.2
2017-09-30T10:01:17.452Z,1018.2
2017-09-30T10:02:16.753Z,1018.2
2017-09-30T10:03:16.190Z,1018.2
2017-09-30T10:04:15.378Z,1018.2
2017-09-30T10:05:14.805Z,1018.1
2017-09-30T10:06:13.603Z,1018.1
2017-09-30T10:07:13.159Z,1018
2017-09-30T10:08:12.340Z,1018.1
2017-09-30T10:09:11.905Z,1018
2017-09-30T10:10:10.993Z,1018.1
2017-09-30T10:11:10.177Z,1018
2017-09-30T10:12:09.354Z,1018
2017-09-30T10:13:08.543Z,1017.9
2017-09-30T10:14:08.233Z,1017.9
2017-09-30T10:15:07.288Z,1017.9
2017-09-30T10:16:06.723Z,1017.9
2017-09-30T10:17:05.908Z,1018
2017-09-30T10:20:03.867Z,1017.9
2017-09-30T10:21:02.927Z,1017.9
2017-09-30T10:22:02.148Z,1017.9
2017-09-30T10:23:01.326Z,1017.9
2017-09-30T10:24:01.010Z,1017.8
2017-09-30T10:24:31.383Z,1017.8
2017-09-30T10:25:01.879Z,1017.8
2017-09-30T10:25:32.376Z,1017.8
2017-09-30T10:26:02.628Z,1017.8
2017-09-30T10:26:33.250Z,1017.8
2017-09-30T10:27:03.743Z,1017.8
2017-09-30T10:27:34.117Z,1017.8
2017-09-30T10:28:04.616Z,1017.8
2017-09-30T10:28:35.235Z,1017.8
2017-09-30T10:30:55.701Z,1017.8
2017-09-30T10:31:55.006Z,1017.8
2017-09-30T10:32:54.310Z,1017.8
2017-09-30T10:33:53.490Z,1017.8
2017-09-30T10:34:53.176Z,1017.8
2017-09-30T10:35:52.361Z,1017.9
2017-09-30T10:36:51.813Z,1017.8
2017-09-30T10:37:51.007Z,1017.8
2017-09-30T10:38:50.171Z,1017.8
2017-09-30T10:39:49.609Z,1017.8
2017-09-30T10:40:49.044Z,1017.8
2017-09-30T10:41:48.222Z,1017.7
2017-09-30T10:42:47.403Z,1017.7
2017-09-30T10:43:46.834Z,1017.7
2017-09-30T10:44:46.136Z,1017.6
2017-09-30T10:45:45.192Z,1017.7
2017-09-30T10:46:44.369Z,1017.6
2017-09-30T10:47:44.058Z,1017.6
2017-09-30T10:48:43.230Z,1017.6
2017-09-30T10:49:42.660Z,1017.6
2017-09-30T10:50:41.851Z,1017.6
2017-09-30T10:51:40.903Z,1017.6
2017-09-30T10:52:40.458Z,1017.6
2017-09-30T10:53:39.889Z,1017.6
2017-09-30T10:54:39.315Z,1017.6
2017-09-30T10:55:38.271Z,1017.6
2017-09-30T10:56:37.578Z,1017.6
2017-09-30T10:57:37.143Z,1017.6
2017-09-30T10:58:36.327Z,1017.5
2017-09-30T10:59:35.886Z,1017.5
2017-09-30T11:00:34.944Z,1017.5
2017-09-30T11:01:34.382Z,1017.5
2017-09-30T11:02:33.562Z,1017.5
2017-09-30T11:03:32.740Z,1017.4
2017-09-30T11:04:32.437Z,1017.4
2017-09-30T11:05:31.642Z,1017.4
2017-09-30T11:06:30.944Z,1017.4
2017-09-30T11:07:30.256Z,1017.4
2017-09-30T11:08:29.310Z,1017.4
2017-09-30T11:10:28.262Z,1017.4
2017-09-30T11:11:27.574Z,1017.4
2017-09-30T11:12:26.627Z,1017.4
2017-09-30T11:13:26.058Z,1017.4
2017-09-30T11:14:25.365Z,1017.4
2017-09-30T11:15:24.923Z,1017.4
2017-09-30T11:16:24.107Z,1017.3
2017-09-30T11:17:23.557Z,1017.4
2017-09-30T11:18:22.749Z,1017.4
2017-09-30T11:19:22.183Z,1017.4
2017-09-30T11:20:21.357Z,1017.4
2017-09-30T11:21:20.792Z,1017.4
2017-09-30T11:22:19.972Z,1017.4
2017-09-30T11:23:19.271Z,1017.4
2017-09-30T11:25:17.839Z,1017.4
2017-09-30T11:26:17.528Z,1017.3
2017-09-30T11:27:16.580Z,1017.3
2017-09-30T11:28:16.136Z,1017.3
2017-09-30T11:29:15.446Z,1017.3
2017-09-30T11:30:14.627Z,1017.3
2017-09-30T11:31:13.804Z,1017.3
2017-09-30T11:32:13.365Z,1017.3
2017-09-30T11:33:12.425Z,1017.3
2017-09-30T11:34:11.859Z,1017.3
2017-09-30T11:35:11.289Z,1017.3
2017-09-30T11:36:10.721Z,1017.3
2017-09-30T11:37:10.026Z,1017.3
2017-09-30T11:38:09.343Z,1017.3
2017-09-30T11:39:08.650Z,1017.2
2017-09-30T11:40:07.830Z,1017.2
2017-09-30T11:41:07.133Z,1017.2
2017-09-30T11:42:06.442Z,1017.2
2017-09-30T11:43:05.882Z,1017.2
2017-09-30T11:44:05.060Z,1017.2
2017-09-30T11:45:04.745Z,1017.2
2017-09-30T11:46:04.047Z,1017.2
2017-09-30T11:47:03.363Z,1017.2
2017-09-30T11:48:02.667Z,1017.1
2017-09-30T11:49:02.118Z,1017.1
2017-09-30T11:50:01.169Z,1017
2017-09-30T11:51:00.483Z,1017
2017-09-30T11:51:59.793Z,1017
2017-09-30T11:52:59.112Z,1017
2017-09-30T11:53:58.788Z,1017.1
2017-09-30T11:54:58.102Z,1017
2017-09-30T11:55:57.161Z,1017
2017-09-30T11:56:56.846Z,1017
2017-09-30T11:57:56.149Z,1017
2017-09-30T11:58:55.331Z,1016.9
2017-09-30T11:59:54.639Z,1017
2017-09-30T12:00:54.191Z,1017
2017-09-30T12:01:53.492Z,1017
2017-09-30T12:02:52.802Z,1017
2017-09-30T12:03:52.242Z,1016.9
2017-09-30T12:04:51.165Z,1016.9
2017-09-30T12:05:50.476Z,1016.9
2017-09-30T12:06:49.901Z,1016.8
2017-09-30T12:07:49.353Z,1016.8
2017-09-30T12:08:48.658Z,1016.8
2017-09-30T12:09:48.340Z,1016.8
2017-09-30T12:10:47.641Z,1016.9
2017-09-30T12:11:46.686Z,1016.8
2017-09-30T12:12:45.872Z,1016.8
2017-09-30T12:13:45.551Z,1016.8
2017-09-30T12:14:44.873Z,1016.8
2017-09-30T12:15:44.303Z,1016.8
2017-09-30T12:16:43.729Z,1016.8
2017-09-30T12:17:42.658Z,1016.8
2017-09-30T12:18:42.002Z,1016.8
2017-09-30T12:19:41.689Z,1016.8
2017-09-30T12:20:41.119Z,1016.8
2017-09-30T12:21:40.176Z,1016.8
2017-09-30T12:22:39.357Z,1016.8
2017-09-30T12:23:39.048Z,1016.7
2017-09-30T12:24:38.222Z,1016.7
2017-09-30T12:25:37.536Z,1016.7
2017-09-30T12:26:37.096Z,1016.7
2017-09-30T12:28:35.431Z,1016.7
2017-09-30T12:29:34.994Z,1016.7
2017-09-30T12:30:34.184Z,1016.7
2017-09-30T12:31:33.876Z,1016.7
2017-09-30T12:32:32.932Z,1016.7
2017-09-30T12:33:32.492Z,1016.6
2017-09-30T12:34:31.544Z,1016.6
2017-09-30T12:35:30.975Z,1016.6
2017-09-30T12:36:30.655Z,1016.6
2017-09-30T12:37:29.581Z,1016.6
2017-09-30T12:38:29.017Z,1016.6
2017-09-30T12:39:28.453Z,1016.6
2017-09-30T12:40:28.018Z,1016.6
2017-09-30T12:41:27.070Z,1016.6
2017-09-30T12:42:26.753Z,1016.6
2017-09-30T12:43:26.067Z,1016.6
2017-09-30T12:44:25.123Z,1016.6
2017-09-30T12:45:24.554Z,1016.6
2017-09-30T12:46:24.118Z,1016.6
2017-09-30T12:47:23.299Z,1016.6
2017-09-30T12:48:22.854Z,1016.6
2017-09-30T12:49:22.040Z,1016.6
2017-09-30T12:50:21.470Z,1016.6
2017-09-30T12:51:20.526Z,1016.5
2017-09-30T12:52:20.087Z,1016.6
2017-09-30T12:53:19.520Z,1016.6
2017-09-30T12:54:18.915Z,1016.6
2017-09-30T12:55:18.221Z,1016.6
2017-09-30T12:56:17.406Z,1016.6
2017-09-30T12:57:16.970Z,1016.6
2017-09-30T12:58:16.400Z,1016.6
2017-09-30T12:59:15.583Z,1016.6
2017-09-30T13:00:15.020Z,1016.6
2017-09-30T13:01:14.327Z,1016.6
2017-09-30T13:02:13.379Z,1016.6
2017-09-30T13:03:12.815Z,1016.6
2017-09-30T13:04:12.513Z,1016.5
2017-09-30T13:05:11.686Z,1016.5
2017-09-30T13:06:11.246Z,1016.5
2017-09-30T13:07:10.174Z,1016.5
2017-09-30T13:08:09.985Z,1016.5
2017-09-30T13:09:09.178Z,1016.5
2017-09-30T13:10:08.358Z,1016.5
2017-09-30T13:11:07.793Z,1016.5
2017-09-30T13:12:06.971Z,1016.5
2017-09-30T13:13:06.792Z,1016.5
2017-09-30T13:14:06.093Z,1016.5